ニジニ・ノヴゴロド の空港の天気 - METARとTAF

ニジニ・ノヴゴロド国際空港 ( UWGG / GOJ ) - ロシア ニジニ・ノヴゴロド
飛行場実況気象(Metar)
観測時間07/17 11:30 MSK (07/17 08:30 UTC)
風向・風速北東 3m/s
視程10km以上
天気現象弱い雨
全天の4割程度の雲 雲底高度 1010m
気温20℃
湿度73%
気圧1010hPa
METARUWGG 170830Z 05003MPS 9999 -RA SCT033 20/15 Q1010 R18L/090070 NOSIG
過去の天気等 Google飛行場航空写真 Wunderground天気予報

過去48時間のMETAR

飛行場予報(TAF)
発表時間: 7/17 10:55 MSK (7/17 07:55 UTC)
予報対象時間: 17日12時 MSK ~ 18日12時 MSK
風向・風速東 3m/s
視程10km以上
全天の8割程度の雲 雲底高度 490m
17日12時 MSK ~ 17日21時 MSK に一時的に
風向・風速東 5m/s 瞬間風速 14m/s
視程4000m
天気現象弱いしゅう雨
全天の8割程度の積乱雲 雲底高度 340m
TAF UWGG 170755Z 1709/1809 10003MPS 9999 BKN016 TX23/1712Z TN11/1803Z
TEMPO 1709/1718 09005G14MPS 4000 -SHRA BKN011CB